createdAt,value
2023-01-09T00:01:42.673Z,98777.84
2023-01-09T00:04:14.084Z,98784.53
2023-01-09T00:06:43.951Z,98786.25
2023-01-09T00:09:12.723Z,98782.06
2023-01-09T00:11:41.567Z,98777.88
2023-01-09T00:14:11.118Z,98777.88
2023-01-09T00:16:40.294Z,98775.38
2023-01-09T00:19:09.251Z,98770.31
2023-01-09T00:21:40.387Z,98763.56
2023-01-09T00:24:09.676Z,98761.00
2023-01-09T00:26:38.379Z,98755.94
2023-01-09T00:29:12.368Z,98750.06
2023-01-09T00:31:41.081Z,98759.34
2023-01-09T00:34:11.757Z,98759.34
2023-01-09T00:36:42.004Z,98747.56
2023-01-09T00:39:10.757Z,98743.34
2023-01-09T00:41:42.406Z,98725.69
2023-01-09T00:44:16.341Z,98737.44
2023-01-09T00:46:49.310Z,98731.53
2023-01-09T00:49:20.109Z,98723.13
2023-01-09T00:51:50.922Z,98718.09
2023-01-09T00:54:22.011Z,98713.88
2023-01-09T00:56:51.523Z,98712.16
2023-01-09T00:59:20.297Z,98707.13
2023-01-09T01:01:49.334Z,98705.47
2023-01-09T01:04:27.980Z,98704.63
2023-01-09T01:07:08.174Z,98710.53
2023-01-09T01:09:37.067Z,98711.38
2023-01-09T01:12:07.528Z,98707.16
2023-01-09T01:14:37.550Z,98708.84
2023-01-09T01:17:06.835Z,98697.00
2023-01-09T01:19:36.284Z,98690.28
2023-01-09T01:22:06.557Z,98689.44
2023-01-09T01:24:35.291Z,98676.78
2023-01-09T01:27:04.211Z,98677.66
2023-01-09T01:29:32.932Z,98671.75
2023-01-09T01:32:01.711Z,98671.72
2023-01-09T01:34:30.651Z,98663.28
2023-01-09T01:36:59.447Z,98648.97
2023-01-09T01:39:29.658Z,98651.47
2023-01-09T01:41:58.448Z,98641.34
2023-01-09T01:44:55.779Z,98634.63
2023-01-09T01:47:29.606Z,98631.25
2023-01-09T01:49:58.539Z,98618.59
2023-01-09T01:52:27.685Z,98632.09
2023-01-09T01:54:58.007Z,98623.69
2023-01-09T01:57:27.365Z,98622.03
2023-01-09T02:00:00.508Z,98620.38
2023-01-09T02:02:33.445Z,98614.47
2023-01-09T02:05:06.807Z,98608.59
2023-01-09T02:07:35.366Z,98590.91
2023-01-09T02:10:06.087Z,98587.56
2023-01-09T02:12:34.860Z,98575.78
2023-01-09T02:15:07.836Z,98579.19
2023-01-09T02:17:59.116Z,98569.91
2023-01-09T02:20:43.665Z,98567.41
2023-01-09T02:23:40.902Z,98553.09
2023-01-09T02:26:36.228Z,98549.72
2023-01-09T02:29:29.917Z,98557.31
2023-01-09T02:32:06.581Z,98547.22
2023-01-09T02:34:47.185Z,98549.72
2023-01-09T02:37:27.138Z,98545.56
2023-01-09T02:40:06.150Z,98543.78
2023-01-09T02:42:37.528Z,98524.03
2023-01-09T02:45:07.268Z,98528.06
2023-01-09T02:47:39.066Z,98537.25
2023-01-09T02:50:12.150Z,98534.47
2023-01-09T02:53:07.349Z,98524.06
2023-01-09T02:55:51.705Z,98514.53
2023-01-09T02:58:33.659Z,98513.59
2023-01-09T03:01:14.308Z,98511.75
2023-01-09T03:03:50.565Z,98516.75
2023-01-09T03:06:24.009Z,98524.38
2023-01-09T03:08:56.987Z,98510.00
2023-01-09T03:11:29.791Z,98475.38
2023-01-09T03:14:08.818Z,98522.63
2023-01-09T03:16:39.395Z,98516.69
2023-01-09T03:19:15.258Z,98499.75
2023-01-09T03:21:46.451Z,98504.91
2023-01-09T03:24:15.469Z,98506.66
2023-01-09T03:26:44.593Z,98503.34
2023-01-09T03:29:13.300Z,98497.47
2023-01-09T03:31:42.016Z,98505.97
2023-01-09T03:34:12.399Z,98485.63
2023-01-09T03:36:42.037Z,98502.50
2023-01-09T03:39:10.433Z,98489.81
2023-01-09T03:41:39.209Z,98479.66
2023-01-09T03:44:08.142Z,98470.28
2023-01-09T03:46:36.921Z,98492.28
2023-01-09T03:49:05.726Z,98471.91
2023-01-09T03:51:35.848Z,98472.78
2023-01-09T03:54:04.731Z,98484.63
2023-01-09T03:56:33.478Z,98480.44
2023-01-09T03:59:02.382Z,98477.97
2023-01-09T04:01:31.190Z,98477.94
2023-01-09T04:04:00.181Z,98496.53
2023-01-09T04:06:28.978Z,98478.72
2023-01-09T04:08:59.169Z,98494.81
2023-01-09T04:11:28.108Z,98483.03
2023-01-09T04:13:56.887Z,98477.16
2023-01-09T04:16:25.672Z,98491.56
2023-01-09T04:18:54.358Z,98477.94
2023-01-09T04:21:23.449Z,98477.97
2023-01-09T04:23:52.181Z,98498.28
2023-01-09T04:26:22.643Z,98500.00
2023-01-09T04:28:51.422Z,98486.50
2023-01-09T04:31:20.213Z,98494.94
2023-01-09T04:33:49.022Z,98488.13
2023-01-09T04:36:17.801Z,98467.94
2023-01-09T04:38:46.505Z,98492.38
2023-01-09T04:41:35.535Z,98481.41
2023-01-09T04:44:05.942Z,98484.78
2023-01-09T04:46:34.709Z,98484.00
2023-01-09T04:49:03.437Z,98494.94
2023-01-09T04:51:32.301Z,98500.88
2023-01-09T04:54:00.939Z,98494.94
2023-01-09T04:56:29.878Z,98494.09
2023-01-09T04:58:58.669Z,98500.06
2023-01-09T05:01:28.956Z,98492.47
2023-01-09T05:03:58.102Z,98481.53
2023-01-09T05:06:26.939Z,98486.53
2023-01-09T05:08:56.870Z,98489.06
2023-01-09T05:11:26.977Z,98489.88
2023-01-09T05:13:55.754Z,98484.81
2023-01-09T05:16:24.564Z,98489.00
2023-01-09T05:18:57.441Z,98486.50
2023-01-09T05:21:26.379Z,98490.75
2023-01-09T05:23:55.372Z,98478.94
2023-01-09T05:26:25.265Z,98469.59
2023-01-09T05:28:53.955Z,98469.53
2023-01-09T05:31:23.033Z,98466.97
2023-01-09T05:33:51.953Z,98459.28
2023-01-09T05:36:22.174Z,98460.91
2023-01-09T05:38:50.967Z,98454.13
2023-01-09T05:41:19.748Z,98462.66
2023-01-09T05:43:49.889Z,98463.50
2023-01-09T05:46:18.776Z,98457.59
2023-01-09T05:48:47.619Z,98454.22
2023-01-09T05:51:16.535Z,98440.72
2023-01-09T05:53:46.702Z,98439.84
2023-01-09T05:56:15.623Z,98441.44
2023-01-09T05:58:44.390Z,98437.19
2023-01-09T06:01:13.353Z,98443.97
2023-01-09T06:03:42.212Z,98435.53
2023-01-09T06:06:11.021Z,98430.44
2023-01-09T06:08:39.856Z,98415.28
2023-01-09T06:11:10.515Z,98421.16
2023-01-09T06:13:39.331Z,98423.59
2023-01-09T06:16:09.187Z,98432.91
2023-01-09T06:18:38.175Z,98415.25
2023-01-09T06:21:07.267Z,98422.81
2023-01-09T06:23:36.049Z,98422.00
2023-01-09T06:26:04.956Z,98426.28
2023-01-09T06:28:35.246Z,98423.72
2023-01-09T06:31:04.238Z,98418.59
2023-01-09T06:33:33.395Z,98413.47
2023-01-09T06:36:02.230Z,98410.06
2023-01-09T06:38:31.099Z,98405.81
2023-01-09T06:40:59.949Z,98415.22
2023-01-09T06:43:28.899Z,98424.56
2023-01-09T06:45:59.597Z,98415.28
2023-01-09T06:48:28.834Z,98403.44
2023-01-09T06:50:57.747Z,98399.31
2023-01-09T06:53:26.573Z,98397.53
2023-01-09T06:55:55.291Z,98383.06
2023-01-09T06:58:24.080Z,98394.00
2023-01-09T07:00:54.097Z,98391.50
2023-01-09T07:03:24.446Z,98396.50
2023-01-09T07:05:53.492Z,98394.81
2023-01-09T07:08:22.201Z,98393.13
2023-01-09T07:10:50.980Z,98395.66
2023-01-09T07:13:19.670Z,98381.25
2023-01-09T07:15:50.617Z,98391.44
2023-01-09T07:18:19.437Z,98393.13
2023-01-09T07:20:49.821Z,98382.94
2023-01-09T07:23:18.987Z,98384.69
2023-01-09T07:25:48.323Z,98372.94
2023-01-09T07:28:17.106Z,98384.72
2023-01-09T07:30:45.899Z,98373.72
2023-01-09T07:33:14.702Z,98378.78
2023-01-09T07:35:43.652Z,98391.44
2023-01-09T07:38:14.238Z,98388.03
2023-01-09T07:40:43.110Z,98373.63
2023-01-09T07:43:11.820Z,98386.34
2023-01-09T07:45:40.707Z,98375.38
2023-01-09T07:48:09.466Z,98387.22
2023-01-09T07:50:38.205Z,98382.97
2023-01-09T07:53:06.961Z,98384.69
2023-01-09T07:55:37.153Z,98386.41
2023-01-09T07:58:05.914Z,98380.50
2023-01-09T08:00:35.307Z,98375.44
2023-01-09T08:03:04.248Z,98388.13
2023-01-09T08:05:32.931Z,98396.50
2023-01-09T08:08:02.159Z,98382.91
2023-01-09T08:10:30.723Z,98377.81
2023-01-09T08:13:00.867Z,98371.06
2023-01-09T08:15:29.775Z,98382.13
2023-01-09T08:17:58.396Z,98366.88
2023-01-09T08:20:27.703Z,98377.88
2023-01-09T08:22:57.027Z,98366.84
2023-01-09T08:25:25.897Z,98374.47
2023-01-09T08:27:54.715Z,98388.81
2023-01-09T08:30:24.910Z,98372.66
2023-01-09T08:32:55.565Z,98398.09
2023-01-09T08:35:24.533Z,98394.72
2023-01-09T08:37:53.223Z,98393.94
2023-01-09T08:40:21.880Z,98396.44
2023-01-09T08:43:00.966Z,98410.84
2023-01-09T08:45:41.348Z,98396.50
2023-01-09T08:48:10.561Z,98401.59
2023-01-09T08:50:39.509Z,98412.56
2023-01-09T08:53:08.355Z,98417.66
2023-01-09T08:55:37.047Z,98419.38
2023-01-09T08:58:05.937Z,98410.06
2023-01-09T09:00:36.079Z,98415.13
2023-01-09T09:03:05.263Z,98412.56
2023-01-09T09:05:34.706Z,98405.91
2023-01-09T09:08:04.302Z,98423.63
2023-01-09T09:10:32.945Z,98416.84
2023-01-09T09:13:01.825Z,98410.06
2023-01-09T09:15:30.739Z,98411.78
2023-01-09T09:18:03.879Z,98416.88
2023-01-09T09:20:35.499Z,98413.53
2023-01-09T09:23:04.958Z,98418.59
2023-01-09T09:25:33.961Z,98415.22
2023-01-09T09:28:02.766Z,98418.66
2023-01-09T09:30:31.559Z,98411.94
2023-01-09T09:33:04.919Z,98409.38
2023-01-09T09:35:34.967Z,98406.88
2023-01-09T09:38:06.582Z,98398.44
2023-01-09T09:41:08.013Z,98406.06
2023-01-09T09:44:09.507Z,98384.03
2023-01-09T09:46:45.001Z,98378.09
2023-01-09T09:49:21.162Z,98367.03
2023-01-09T09:52:01.763Z,98372.88
2023-01-09T09:54:35.829Z,98371.16
2023-01-09T09:57:07.520Z,98360.94
2023-01-09T09:59:39.239Z,98364.31
2023-01-09T10:02:25.673Z,98366.81
2023-01-09T10:05:02.128Z,98360.91
2023-01-09T10:07:38.873Z,98359.19
2023-01-09T10:10:16.055Z,98360.00
2023-01-09T10:12:53.787Z,98362.50
2023-01-09T10:15:32.180Z,98370.97
2023-01-09T10:18:14.553Z,98367.63
2023-01-09T10:20:58.296Z,98367.63
2023-01-09T10:23:58.114Z,98361.72
2023-01-09T10:26:31.172Z,98369.38
2023-01-09T10:29:25.397Z,98381.25
2023-01-09T10:32:05.508Z,98377.81
2023-01-09T10:34:49.039Z,98379.44
2023-01-09T10:37:23.089Z,98381.13
2023-01-09T10:39:56.969Z,98381.13
2023-01-09T10:42:33.651Z,98370.97
2023-01-09T10:45:08.052Z,98366.78
2023-01-09T10:47:39.149Z,98372.63
2023-01-09T10:50:21.190Z,98367.50
2023-01-09T10:52:54.857Z,98369.22
2023-01-09T10:55:41.509Z,98373.44
2023-01-09T10:58:13.712Z,98367.47
2023-01-09T11:00:43.617Z,98373.41
2023-01-09T11:03:14.389Z,98374.25
2023-01-09T11:05:43.571Z,98379.34
2023-01-09T11:08:25.592Z,98381.00
2023-01-09T11:10:56.820Z,98378.47
2023-01-09T11:13:29.533Z,98371.72
2023-01-09T11:16:04.708Z,98377.69
2023-01-09T11:18:34.240Z,98370.88
2023-01-09T11:21:16.614Z,98384.44
2023-01-09T11:23:46.884Z,98370.88
2023-01-09T11:26:25.450Z,98373.44
2023-01-09T11:29:09.014Z,98370.94
2023-01-09T11:31:38.115Z,98370.94
2023-01-09T11:34:08.845Z,98365.03
2023-01-09T11:36:37.985Z,98366.75
2023-01-09T11:39:21.070Z,98357.44
2023-01-09T11:41:55.231Z,98351.53
2023-01-09T11:44:25.098Z,98358.28
2023-01-09T11:46:53.903Z,98352.41
2023-01-09T11:49:25.655Z,98350.75
2023-01-09T11:52:16.319Z,98340.56
2023-01-09T11:54:51.885Z,98342.25
2023-01-09T11:57:23.165Z,98341.41
2023-01-09T11:59:53.279Z,98341.41
2023-01-09T12:02:43.010Z,98340.56
2023-01-09T12:05:23.426Z,98339.69
2023-01-09T12:08:06.976Z,98330.44
2023-01-09T12:11:05.117Z,98338.09
2023-01-09T12:13:51.950Z,98338.94
2023-01-09T12:16:33.383Z,98354.19
2023-01-09T12:19:17.739Z,98349.19
2023-01-09T12:21:52.185Z,98350.91
2023-01-09T12:24:50.855Z,98358.53
2023-01-09T12:27:30.155Z,98364.53
2023-01-09T12:30:12.303Z,98374.75
2023-01-09T12:32:54.069Z,98379.00
2023-01-09T12:35:35.045Z,98378.97
2023-01-09T12:38:35.111Z,98373.03
2023-01-09T12:41:20.268Z,98368.84
2023-01-09T12:44:03.930Z,98363.78
2023-01-09T12:46:39.091Z,98352.78
2023-01-09T12:49:28.206Z,98342.66
2023-01-09T12:52:05.221Z,98345.22
2023-01-09T12:54:44.610Z,98340.09
2023-01-09T12:57:23.271Z,98343.47
2023-01-09T12:59:57.803Z,98340.13
2023-01-09T13:02:32.904Z,98330.03
2023-01-09T13:05:11.327Z,98355.38
2023-01-09T13:07:45.287Z,98355.38
2023-01-09T13:10:23.794Z,98359.63
2023-01-09T13:12:54.250Z,98359.63
2023-01-09T13:15:31.902Z,98346.94
2023-01-09T13:18:07.438Z,98352.88
2023-01-09T13:20:43.565Z,98363.06
2023-01-09T13:23:23.760Z,98358.84
2023-01-09T13:25:57.802Z,98362.25
2023-01-09T13:28:32.732Z,98364.78
2023-01-09T13:31:26.531Z,98364.84
2023-01-09T13:33:58.613Z,98369.97
2023-01-09T13:36:30.374Z,98372.50
2023-01-09T13:39:01.183Z,98390.28
2023-01-09T13:41:41.338Z,98378.41
2023-01-09T13:44:24.395Z,98386.94
2023-01-09T13:46:58.621Z,98371.69
2023-01-09T13:49:49.405Z,98379.28
2023-01-09T13:52:37.652Z,98386.94
2023-01-09T13:55:26.522Z,98387.81
2023-01-09T13:58:16.825Z,98388.59
2023-01-09T14:01:02.213Z,98386.09
2023-01-09T14:03:36.022Z,98392.03
2023-01-09T14:06:16.709Z,98399.63
2023-01-09T14:08:48.491Z,98394.53
2023-01-09T14:11:27.743Z,98394.53
2023-01-09T14:14:18.398Z,98398.75
2023-01-09T14:16:47.247Z,98394.50
2023-01-09T14:19:32.767Z,98386.94
2023-01-09T14:22:02.248Z,98395.38
2023-01-09T14:24:34.158Z,98392.88
2023-01-09T14:27:03.627Z,98396.31
2023-01-09T14:29:45.269Z,98398.03
2023-01-09T14:32:37.041Z,98397.19
2023-01-09T14:35:17.643Z,98404.03
2023-01-09T14:37:56.394Z,98410.81
2023-01-09T14:40:25.270Z,98413.34
2023-01-09T14:42:56.867Z,98418.44
2023-01-09T14:45:27.654Z,98416.75
2023-01-09T14:48:00.597Z,98418.50
2023-01-09T14:50:35.434Z,98412.59
2023-01-09T14:53:12.464Z,98417.69
2023-01-09T14:55:51.266Z,98426.22
2023-01-09T14:58:26.165Z,98425.41
2023-01-09T15:01:02.015Z,98426.25
2023-01-09T15:03:36.254Z,98433.03
2023-01-09T15:06:08.087Z,98421.19
2023-01-09T15:08:38.215Z,98422.91
2023-01-09T15:11:07.264Z,98426.34
2023-01-09T15:13:38.650Z,98425.50
2023-01-09T15:16:16.219Z,98433.97
2023-01-09T15:18:45.369Z,98425.53
2023-01-09T15:21:21.589Z,98426.41
2023-01-09T15:23:50.564Z,98431.50
2023-01-09T15:26:27.904Z,98437.41
2023-01-09T15:29:03.397Z,98438.25
2023-01-09T15:31:32.710Z,98436.59
2023-01-09T15:34:05.349Z,98439.97
2023-01-09T15:36:39.986Z,98436.63
2023-01-09T15:39:08.997Z,98445.13
2023-01-09T15:41:47.797Z,98439.16
2023-01-09T15:44:20.106Z,98440.03
2023-01-09T15:46:52.054Z,98444.31
2023-01-09T15:49:21.457Z,98446.00
2023-01-09T15:51:52.390Z,98451.09
2023-01-09T15:54:28.815Z,98445.19
2023-01-09T15:57:34.504Z,98450.25
2023-01-09T16:00:24.235Z,98441.84
2023-01-09T16:03:02.576Z,98445.25
2023-01-09T16:05:33.576Z,98450.34
2023-01-09T16:08:04.441Z,98445.31
2023-01-09T16:10:37.113Z,98445.31
2023-01-09T16:13:06.726Z,98441.97
2023-01-09T16:15:36.899Z,98443.63
2023-01-09T16:18:19.785Z,98453.81
2023-01-09T16:20:49.471Z,98447.06
2023-01-09T16:23:25.346Z,98450.47
2023-01-09T16:26:05.190Z,98440.34
2023-01-09T16:28:34.436Z,98444.59
2023-01-09T16:31:08.592Z,98438.69
2023-01-09T16:33:44.975Z,98452.19
2023-01-09T16:36:17.275Z,98446.31
2023-01-09T16:38:49.323Z,98459.00
2023-01-09T16:41:29.932Z,98453.06
2023-01-09T16:43:59.128Z,98454.75
2023-01-09T16:46:28.474Z,98453.91
2023-01-09T16:48:57.278Z,98453.09
2023-01-09T16:51:26.146Z,98448.84
2023-01-09T16:53:56.674Z,98457.28
2023-01-09T16:56:28.127Z,98448.84
2023-01-09T16:58:57.693Z,98453.94
2023-01-09T17:01:27.114Z,98451.44
2023-01-09T17:03:56.271Z,98448.91
2023-01-09T17:06:28.133Z,98444.69
2023-01-09T17:08:59.003Z,98446.34
2023-01-09T17:11:32.257Z,98448.91
2023-01-09T17:14:03.146Z,98450.63
2023-01-09T17:16:32.309Z,98443.88
2023-01-09T17:19:01.184Z,98442.22
2023-01-09T17:21:31.287Z,98445.56
2023-01-09T17:24:11.380Z,98454.00
2023-01-09T17:26:52.624Z,98447.22
2023-01-09T17:29:21.558Z,98454.00
2023-01-09T17:31:50.390Z,98448.09
2023-01-09T17:34:19.707Z,98440.50
2023-01-09T17:36:48.667Z,98441.31
2023-01-09T17:39:19.276Z,98434.56
2023-01-09T17:41:49.003Z,98437.13
2023-01-09T17:44:17.781Z,98437.97
2023-01-09T17:46:46.655Z,98438.78
2023-01-09T17:49:19.052Z,98441.34
2023-01-09T17:51:48.151Z,98437.19
2023-01-09T17:54:20.992Z,98439.72
2023-01-09T17:56:52.513Z,98441.38
2023-01-09T17:59:21.300Z,98443.91
2023-01-09T18:01:50.101Z,98448.97
2023-01-09T18:04:18.999Z,98449.84
2023-01-09T18:06:49.589Z,98452.41
2023-01-09T18:09:19.824Z,98449.88
2023-01-09T18:11:49.005Z,98445.63
2023-01-09T18:14:20.309Z,98447.31
2023-01-09T18:16:49.330Z,98439.72
2023-01-09T18:19:18.119Z,98442.25
2023-01-09T18:21:47.650Z,98433.78
2023-01-09T18:24:16.790Z,98444.78
2023-01-09T18:26:46.926Z,98432.06
2023-01-09T18:29:15.697Z,98443.91
2023-01-09T18:31:44.517Z,98443.91
2023-01-09T18:34:13.353Z,98436.28
2023-01-09T18:36:42.136Z,98443.91
2023-01-09T18:39:13.306Z,98440.56
2023-01-09T18:41:42.903Z,98442.25
2023-01-09T18:44:12.850Z,98442.25
2023-01-09T18:46:42.295Z,98436.28
2023-01-09T18:49:11.410Z,98426.19
2023-01-09T18:51:40.364Z,98436.28
2023-01-09T18:54:09.366Z,98439.69
2023-01-09T18:56:38.103Z,98439.69
2023-01-09T18:59:07.299Z,98432.94
2023-01-09T19:01:37.683Z,98439.69
2023-01-09T19:04:06.630Z,98437.13
2023-01-09T19:06:37.053Z,98434.63
2023-01-09T19:09:06.781Z,98449.00
2023-01-09T19:11:35.198Z,98438.88
2023-01-09T19:14:04.077Z,98438.91
2023-01-09T19:16:33.366Z,98440.56
2023-01-09T19:19:03.672Z,98438.03
2023-01-09T19:21:32.946Z,98439.72
2023-01-09T19:24:01.901Z,98437.19
2023-01-09T19:26:32.490Z,98434.66
2023-01-09T19:29:01.541Z,98432.13
2023-01-09T19:31:30.563Z,98428.72
2023-01-09T19:33:59.725Z,98424.53
2023-01-09T19:36:30.286Z,98428.78
2023-01-09T19:38:59.741Z,98434.69
2023-01-09T19:41:29.837Z,98433.84
2023-01-09T19:44:00.361Z,98439.75
2023-01-09T19:46:30.558Z,98438.91
2023-01-09T19:48:59.280Z,98437.22
2023-01-09T19:51:29.445Z,98442.28
2023-01-09T19:56:35.740Z,98438.03
2023-01-09T19:59:06.148Z,98434.69
2023-01-09T20:01:36.965Z,98443.97
2023-01-09T20:04:13.894Z,98454.13
2023-01-09T20:06:47.247Z,98453.25
2023-01-09T20:09:17.921Z,98448.19
2023-01-09T20:11:46.796Z,98454.13
2023-01-09T20:14:18.036Z,98454.13
2023-01-09T20:16:48.776Z,98454.13
2023-01-09T20:19:18.269Z,98450.75
2023-01-09T20:21:49.456Z,98452.41
2023-01-09T20:24:18.313Z,98452.41
2023-01-09T20:26:47.559Z,98450.75
2023-01-09T20:29:17.184Z,98444.81
2023-01-09T20:31:45.703Z,98442.28
2023-01-09T20:34:16.764Z,98438.91
2023-01-09T20:36:46.518Z,98436.41
2023-01-09T20:39:16.792Z,98444.84
2023-01-09T20:41:45.569Z,98433.84
2023-01-09T20:44:16.221Z,98433.84
2023-01-09T20:46:48.437Z,98430.44
2023-01-09T20:49:19.639Z,98428.78
2023-01-09T20:51:49.807Z,98420.28
2023-01-09T20:54:22.566Z,98420.28
2023-01-09T20:56:51.916Z,98423.66
2023-01-09T20:59:22.439Z,98417.75
2023-01-09T21:01:52.430Z,98412.66
2023-01-09T21:04:21.250Z,98421.97
2023-01-09T21:06:50.569Z,98408.47
2023-01-09T21:09:21.358Z,98424.50
2023-01-09T21:11:50.162Z,98418.56
2023-01-09T21:14:18.942Z,98416.88
2023-01-09T21:16:54.507Z,98411.78
2023-01-09T21:19:24.334Z,98414.34
2023-01-09T21:21:53.600Z,98421.09
2023-01-09T21:24:23.829Z,98418.56
2023-01-09T21:26:53.052Z,98421.91
2023-01-09T21:29:21.859Z,98425.28
2023-01-09T21:31:50.627Z,98429.53
2023-01-09T21:34:20.934Z,98432.06
2023-01-09T21:36:49.928Z,98427.00
2023-01-09T21:39:20.425Z,98432.06
2023-01-09T21:42:00.377Z,98429.53
2023-01-09T21:44:39.500Z,98431.22
2023-01-09T21:47:08.416Z,98425.28
2023-01-09T21:49:41.277Z,98432.06
2023-01-09T21:52:10.967Z,98434.63
2023-01-09T21:54:39.909Z,98422.78
2023-01-09T21:57:10.630Z,98433.75
2023-01-09T21:59:39.265Z,98432.91
2023-01-09T22:02:08.309Z,98437.13
2023-01-09T22:04:37.123Z,98443.03
2023-01-09T22:07:06.189Z,98445.56
2023-01-09T22:09:35.014Z,98447.28
2023-01-09T22:12:03.880Z,98450.66
2023-01-09T22:14:34.054Z,98453.19
2023-01-09T22:17:02.781Z,98448.94
2023-01-09T22:19:31.596Z,98445.56
2023-01-09T22:22:02.911Z,98449.81
2023-01-09T22:24:31.740Z,98448.97
2023-01-09T22:27:00.487Z,98449.81
2023-01-09T22:29:29.418Z,98447.28
2023-01-09T22:31:59.597Z,98448.97
2023-01-09T22:34:28.503Z,98447.28
2023-01-09T22:36:57.166Z,98447.28
2023-01-09T22:39:26.478Z,98452.34
2023-01-09T22:41:55.708Z,98440.53
2023-01-09T22:44:24.918Z,98453.22
2023-01-09T22:46:53.553Z,98434.66
2023-01-09T22:49:25.087Z,98450.66
2023-01-09T22:51:55.219Z,98449.81
2023-01-09T22:54:23.819Z,98454.91
2023-01-09T22:56:52.826Z,98447.28
2023-01-09T22:59:21.522Z,98451.53
2023-01-09T23:01:50.446Z,98451.53
2023-01-09T23:04:19.170Z,98452.34
2023-01-09T23:06:49.428Z,98442.22
2023-01-09T23:09:18.367Z,98442.22
2023-01-09T23:12:04.013Z,98450.69
2023-01-09T23:14:44.120Z,98445.63
2023-01-09T23:17:23.100Z,98448.16
2023-01-09T23:20:01.785Z,98450.69
2023-01-09T23:22:42.672Z,98450.69
2023-01-09T23:25:22.554Z,98452.41
2023-01-09T23:28:02.270Z,98442.25
2023-01-09T23:30:42.013Z,98444.78
2023-01-09T23:33:21.624Z,98454.13
2023-01-09T23:36:01.330Z,98445.66
2023-01-09T23:38:42.456Z,98453.25
2023-01-09T23:41:42.445Z,98440.56
2023-01-09T23:44:21.425Z,98445.63
2023-01-09T23:47:01.191Z,98445.63
2023-01-09T23:49:42.340Z,98449.03
2023-01-09T23:52:21.110Z,98450.72
2023-01-09T23:55:02.405Z,98438.03
2023-01-09T23:57:42.082Z,98449.91
